Everett, Washington
Current Conditions -  °F | °C
As of 4:53 PM on Monday 26 Jan 2015 (Local Time) from KPAE Reporting Station
Clear Clear  
Wind Chill: 15°   Ceiling: Unl
Heat Index: 15°   Visibility: 10mi
Dew Point:   Wind: 12mph
Humidity: 55%   Direction: 170°S
Pressure: 29.9"   Gusts: NA
Location:  47.98°N, 122.2°W
Report Text: KPAE 270053Z 17010KT 10SM CLR 15/06 A2990 RMK AO2 SLP125 T01500061
Loading
Personal Weather Stations






























Interactive Weather Map New forecast layout! Learn more

10-Day Weather Forecast

Advertisements
Track Severe Weather on mobile